Time;durP1;ratioP1;P1;durP2;ratioP2;P2;SDS_P1;SDS_P2;PMS_P1;PMS_P2;Temp;Humidity;BMP_temperature;BMP_pressure;BME280_temperature;BME280_humidity;BME280_pressure;Samples;Min_cycle;Max_cycle;Signal;HPM_P1;HPM_P2
2022/04/27 00:02:04;;;;;;;0.10;0.10;;;;;;;;;;5026732;28;20219;-72
2022/04/27 00:04:32;;;;;;;0.10;0.10;;;;;;;;;;5022063;28;20231;-72
2022/04/27 00:06:59;;;;;;;0.10;0.10;;;;;;;;;;5020642;28;20666;-71
2022/04/27 00:09:27;;;;;;;0.10;0.10;;;;;;;;;;5020443;28;20205;-71
2022/04/27 00:12:00;;;;;;;0.10;0.10;;;;;;;;;;5026436;28;20232;-71
2022/04/27 00:14:28;;;;;;;0.10;0.10;;;;;;;;;;5031954;28;20302;-72
2022/04/27 00:16:55;;;;;;;0.10;0.10;;;;;;;;;;5027239;28;20228;-72
2022/04/27 00:19:23;;;;;;;0.10;0.10;;;;;;;;;;5030309;28;20680;-72
2022/04/27 00:21:50;;;;;;;0.10;0.10;;;;;;;;;;5018306;28;20227;-71
2022/04/27 00:24:18;;;;;;;0.10;0.10;;;;;;;;;;5021642;28;20215;-72
2022/04/27 00:26:46;;;;;;;0.10;0.10;;;;;;;;;;5019447;28;20653;-72
2022/04/27 00:29:14;;;;;;;0.10;0.10;;;;;;;;;;5022764;28;20207;-71
2022/04/27 00:31:42;;;;;;;0.10;0.10;;;;;;;;;;5027602;28;20220;-72
2022/04/27 00:34:09;;;;;;;0.10;0.10;;;;;;;;;;5025619;28;20219;-71
2022/04/27 00:36:37;;;;;;;0.10;0.10;;;;;;;;;;5017545;28;20283;-71
2022/04/27 00:39:05;;;;;;;0.10;0.10;;;;;;;;;;5022134;28;20199;-71
2022/04/27 00:41:32;;;;;;;0.00;0.00;;;;;;;;;;5016073;28;20200;-71
2022/04/27 00:43:59;;;;;;;0.10;0.10;;;;;;;;;;5020274;28;20314;-71
2022/04/27 00:46:28;;;;;;;0.10;0.10;;;;;;;;;;5020854;28;20204;-71
2022/04/27 00:48:56;;;;;;;0.10;0.10;;;;;;;;;;5020160;28;20204;-71
2022/04/27 00:51:23;;;;;;;0.10;0.10;;;;;;;;;;5024952;28;20224;-71
2022/04/27 00:53:52;;;;;;;0.03;0.03;;;;;;;;;;5024253;28;20722;-71
2022/04/27 00:56:21;;;;;;;0.10;0.10;;;;;;;;;;5016491;28;20211;-70
2022/04/27 00:58:48;;;;;;;0.10;0.10;;;;;;;;;;5023638;28;20195;-70
2022/04/27 01:01:17;;;;;;;0.10;0.10;;;;;;;;;;5029988;28;20192;-71
2022/04/27 01:03:45;;;;;;;0.10;0.10;;;;;;;;;;5020976;28;20230;-71
2022/04/27 01:06:13;;;;;;;0.10;0.10;;;;;;;;;;5022935;28;20270;-71
2022/04/27 01:08:40;;;;;;;0.10;0.10;;;;;;;;;;5024120;28;20199;-70
2022/04/27 01:11:08;;;;;;;0.10;0.10;;;9.50;99.90;;;;;;5018123;28;20222;-70
2022/04/27 01:13:41;;;;;;;0.10;0.10;;;9.50;99.90;;;;;;5022154;28;20228;-70
2022/04/27 01:16:08;;;;;;;0.10;0.10;;;9.40;99.90;;;;;;5023820;28;20226;-70
2022/04/27 01:18:35;;;;;;;0.10;0.10;;;9.40;99.90;;;;;;5019486;28;20250;-71
2022/04/27 01:21:04;;;;;;;0.10;0.10;;;9.40;99.90;;;;;;5026131;28;20305;-70
2022/04/27 01:23:37;;;;;;;0.10;0.10;;;9.40;99.90;;;;;;5017080;28;20272;-70
2022/04/27 01:26:06;;;;;;;0.10;0.10;;;9.30;99.90;;;;;;5023891;28;20209;-70
2022/04/27 01:28:35;;;;;;;0.10;0.10;;;9.30;99.90;;;;;;5029493;28;20200;-70
2022/04/27 01:31:04;;;;;;;0.10;0.10;;;9.20;99.90;;;;;;5019110;28;20219;-70
2022/04/27 01:33:34;;;;;;;0.10;0.10;;;9.20;99.90;;;;;;5021359;28;20227;-71
2022/04/27 01:36:01;;;;;;;0.10;0.10;;;9.20;99.90;;;;;;5020554;28;20258;-70
2022/04/27 01:38:34;;;;;;;0.10;0.10;;;;;;;;;;5025879;28;20204;-70
2022/04/27 01:41:02;;;;;;;0.10;0.10;;;;;;;;;;5019824;28;20295;-71
2022/04/27 01:43:29;;;;;;;0.10;0.10;;;;;;;;;;5026224;28;20220;-70
2022/04/27 01:45:58;;;;;;;0.10;0.10;;;;;;;;;;5025723;28;20307;-71
2022/04/27 01:48:26;;;;;;;0.10;0.10;;;;;;;;;;5027113;28;20210;-70
2022/04/27 01:50:53;;;;;;;0.10;0.10;;;;;;;;;;5023125;28;20223;-71
2022/04/27 01:56:09;;;;;;;0.10;0.10;;;;;;;;;;5033370;28;20607;-71
2022/04/27 01:58:42;;;;;;;0.00;0.00;;;;;;;;;;5018691;28;20245;-71
2022/04/27 02:01:11;;;;;;;0.00;0.00;;;;;;;;;;5024760;28;20684;-70
2022/04/27 02:03:39;;;;;;;0.10;0.10;;;;;;;;;;5018016;28;21032;-71
2022/04/27 02:06:11;;;;;;;0.00;0.00;;;;;;;;;;5019264;28;20647;-71
2022/04/27 02:08:39;;;;;;;0.10;0.10;;;;;;;;;;5019872;28;20618;-71
2022/04/27 02:11:06;;;;;;;0.10;0.10;;;;;;;;;;5022086;28;20650;-71
2022/04/27 02:13:39;;;;;;;0.10;0.10;;;;;;;;;;5020332;28;20663;-71
2022/04/27 02:16:07;;;;;;;0.10;0.10;;;;;;;;;;5023873;28;20629;-71
2022/04/27 02:18:38;;;;;;;0.10;0.10;;;;;;;;;;5022364;28;20705;-71
2022/04/27 02:21:07;;;;;;;0.10;0.10;;;;;;;;;;5019754;28;20722;-71
2022/04/27 02:23:34;;;;;;;0.10;0.10;;;;;;;;;;5018762;28;20656;-70
2022/04/27 02:26:02;;;;;;;0.10;0.10;;;;;;;;;;5015196;28;20656;-71
2022/04/27 02:28:29;;;;;;;0.10;0.10;;;;;;;;;;5036474;28;20621;-71
2022/04/27 02:30:58;;;;;;;0.10;0.10;;;;;;;;;;5022926;28;20706;-71
2022/04/27 02:33:25;;;;;;;0.10;0.10;;;;;;;;;;5019129;28;20746;-71
2022/04/27 02:35:53;;;;;;;0.10;0.10;;;;;;;;;;5020326;28;20627;-71
2022/04/27 02:38:20;;;;;;;0.10;0.10;;;;;;;;;;5022556;28;20633;-71
2022/04/27 02:40:50;;;;;;;0.10;0.10;;;;;;;;;;5030942;28;20630;-71
2022/04/27 02:43:18;;;;;;;0.10;0.10;;;;;;;;;;5024021;28;20664;-71
2022/04/27 02:45:46;;;;;;;0.10;0.10;;;;;;;;;;5030478;28;20787;-71
2022/04/27 02:48:15;;;;;;;0.10;0.10;;;;;;;;;;5035563;28;20634;-71
2022/04/27 02:53:36;;;;;;;0.10;0.10;;;;;;;;;;4984198;28;20843;-71
2022/04/27 02:56:04;;;;;;;0.10;0.10;;;;;;;;;;5029254;28;20622;-70
2022/04/27 02:58:32;;;;;;;0.10;0.10;;;;;;;;;;5022553;28;20703;-71
2022/04/27 03:01:00;;;;;;;0.10;0.10;;;;;;;;;;5026441;28;20622;-70
2022/04/27 03:03:28;;;;;;;0.10;0.10;;;;;;;;;;5022038;28;20650;-71
2022/04/27 03:05:57;;;;;;;0.10;0.10;;;;;;;;;;5023713;28;20622;-71
2022/04/27 03:08:26;;;;;;;0.10;0.10;;;;;;;;;;5023509;28;20662;-71
2022/04/27 03:10:55;;;;;;;0.10;0.10;;;;;;;;;;5030775;28;20625;-71
2022/04/27 03:13:29;;;;;;;0.10;0.10;;;;;;;;;;5027868;28;20665;-71
2022/04/27 03:16:10;;;;;;;0.10;0.10;;;;;;;;;;5028436;28;20636;-71
2022/04/27 03:18:39;;;;;;;0.10;0.10;;;;;;;;;;5027096;28;20614;-71
2022/04/27 03:21:06;;;;;;;0.10;0.10;;;;;;;;;;5031131;28;20620;-72
2022/04/27 03:23:34;;;;;;;0.10;0.10;;;;;;;;;;5021739;28;20708;-70
2022/04/27 03:26:02;;;;;;;0.10;0.10;;;;;;;;;;5028764;28;20717;-70
2022/04/27 03:28:30;;;;;;;0.10;0.10;;;;;;;;;;5026847;28;20696;-71
2022/04/27 03:30:57;;;;;;;0.10;0.10;;;;;;;;;;5020648;28;20622;-71
2022/04/27 03:33:38;;;;;;;0.10;0.10;;;;;;;;;;5031510;28;20677;-70
2022/04/27 03:36:08;;;;;;;0.10;0.10;;;;;;;;;;5021771;28;20634;-71
2022/04/27 03:38:35;;;;;;;0.10;0.10;;;;;;;;;;5022902;28;20682;-71
2022/04/27 03:41:04;;;;;;;0.10;0.10;;;;;;;;;;5027033;28;20630;-70
2022/04/27 03:43:33;;;;;;;0.10;0.10;;;;;;;;;;5023547;28;20755;-71
2022/04/27 03:46:01;;;;;;;0.00;0.00;;;;;;;;;;5027417;28;20649;-70
2022/04/27 03:48:29;;;;;;;0.10;0.10;;;;;;;;;;5022732;28;20637;-71
2022/04/27 03:50:58;;;;;;;0.10;0.10;;;;;;;;;;5025416;28;20599;-72
2022/04/27 03:53:25;;;;;;;0.10;0.10;;;;;;;;;;5021740;28;20651;-71
2022/04/27 03:55:53;;;;;;;0.10;0.10;;;;;;;;;;5021389;28;20626;-70
2022/04/27 03:58:21;;;;;;;0.10;0.10;;;;;;;;;;5018933;28;20630;-71
2022/04/27 04:00:49;;;;;;;0.10;0.10;;;;;;;;;;5021046;28;20630;-72
2022/04/27 04:03:22;;;;;;;0.10;0.10;;;;;;;;;;5026975;28;20646;-72
2022/04/27 04:05:50;;;;;;;0.10;0.10;;;;;;;;;;5027486;28;20630;-69
2022/04/27 04:08:20;;;;;;;0.10;0.10;;;;;;;;;;5024069;28;20642;-67
2022/04/27 04:10:49;;;;;;;0.10;0.10;;;;;;;;;;5019797;28;20645;-68
2022/04/27 04:13:18;;;;;;;0.10;0.10;;;;;;;;;;5020747;28;20670;-69
2022/04/27 04:15:51;;;;;;;0.10;0.10;;;;;;;;;;5029108;28;20621;-69
2022/04/27 04:18:37;;;;;;;0.10;0.10;;;;;;;;;;5025043;28;20672;-71
2022/04/27 04:21:14;;;;;;;0.10;0.10;;;;;;;;;;5018092;28;20666;-71
2022/04/27 04:24:00;;;;;;;0.10;0.10;;;;;;;;;;5023070;28;21412;-70
2022/04/27 04:29:16;;;;;;;0.10;0.10;;;;;;;;;;5018192;28;20728;-71
2022/04/27 04:31:43;;;;;;;0.10;0.10;;;;;;;;;;5021205;28;20666;-71
2022/04/27 04:34:34;;;;;;;0.10;0.10;;;;;;;;;;5026218;28;20776;-71
2022/04/27 04:37:02;;;;;;;0.20;0.20;;;;;;;;;;5017270;28;20634;-76
2022/04/27 04:39:31;;;;;;;0.10;0.10;;;;;;;;;;5025389;28;20753;-70
2022/04/27 04:42:00;;;;;;;0.10;0.10;;;;;;;;;;5022361;28;20622;-76
2022/04/27 04:44:28;;;;;;;0.10;0.10;;;;;;;;;;5023277;28;20668;-73
2022/04/27 04:47:16;;;;;;;0.17;0.17;;;;;;;;;;5020811;28;20722;-73
2022/04/27 04:50:11;;;;;;;0.10;0.10;;;;;;;;;;4982696;28;20689;-77
2022/04/27 04:52:58;;;;;;;0.20;0.20;;;;;;;;;;5009792;28;20655;-73
2022/04/27 04:55:47;;;;;;;0.10;0.10;;;;;;;;;;5020141;28;20619;-76
2022/04/27 04:58:33;;;;;;;0.10;0.10;;;;;;;;;;5019611;28;20695;-73
2022/04/27 05:01:20;;;;;;;0.10;0.10;;;;;;;;;;5015642;28;20614;-72
2022/04/27 05:04:17;;;;;;;0.10;0.10;;;;;;;;;;4948405;28;20701;-73
2022/04/27 05:06:57;;;;;;;0.10;0.10;;;;;;;;;;5020929;28;20624;-72
2022/04/27 05:09:39;;;;;;;0.10;0.10;;;;;;;;;;5020879;28;21217;-70
2022/04/27 05:12:41;;;;;;;0.10;0.10;;;;;;;;;;5023330;28;20648;-70
2022/04/27 05:15:34;;;;;;;0.10;0.10;;;;;;;;;;4991224;28;20629;-71
2022/04/27 05:18:18;;;;;;;0.10;0.10;;;;;;;;;;5016375;28;20200;-73
2022/04/27 05:21:04;;;;;;;0.10;0.10;;;;;;;;;;5019608;28;20202;-72
2022/04/27 05:23:44;;;;;;;0.10;0.10;;;;;;;;;;5018071;28;20236;-73
2022/04/27 05:26:44;;;;;;;0.10;0.10;;;;;;;;;;4987147;28;20219;-73
2022/04/27 05:32:42;;;;;;;0.10;0.10;;;;;;;;;;5029729;28;20294;-73
2022/04/27 05:35:29;;;;;;;0.10;0.10;;;;;;;;;;4989570;28;20271;-73
2022/04/27 05:38:09;;;;;;;0.10;0.10;;;;;;;;;;5024578;28;20234;-73
2022/04/27 05:40:52;;;;;;;0.10;0.10;;;;;;;;;;5025811;28;20200;-73
2022/04/27 05:43:55;;;;;;;0.10;0.10;;;;;;;;;;4942445;28;20225;-73
2022/04/27 05:46:37;;;;;;;0.10;0.10;;;;;;;;;;5012041;28;20204;-73
2022/04/27 05:49:14;;;;;;;0.10;0.10;;;;;;;;;;5024009;28;20553;-73
2022/04/27 05:51:56;;;;;;;0.10;0.10;;;;;;;;;;5026240;28;20248;-72
2022/04/27 05:54:34;;;;;;;0.10;0.10;;;;;;;;;;5018072;28;20255;-72
2022/04/27 05:57:14;;;;;;;0.10;0.10;;;;;;;;;;5019925;28;20195;-73
2022/04/27 06:00:01;;;;;;;0.10;0.10;;;;;;;;;;5016648;28;20815;-73
2022/04/27 06:02:47;;;;;;;0.10;0.10;;;;;;;;;;5022400;28;20609;-73
2022/04/27 06:05:19;;;;;;;0.10;0.10;;;;;;;;;;5020645;28;20231;-73
2022/04/27 06:07:47;;;;;;;0.10;0.10;;;;;;;;;;5022071;28;20196;-73
2022/04/27 06:10:18;;;;;;;0.03;0.03;;;;;;;;;;5026290;28;20204;-73
2022/04/27 06:12:53;;;;;;;0.10;0.10;;;;;;;;;;5026352;28;20437;-73
2022/04/27 06:15:39;;;;;;;0.10;0.10;;;;;;;;;;5028481;28;20288;-73
2022/04/27 06:18:18;;;;;;;0.10;0.10;;;;;;;;;;5024009;28;20200;-73
2022/04/27 06:20:46;;;;;;;0.10;0.10;;;;;;;;;;5030104;28;20208;-72
2022/04/27 06:23:14;;;;;;;0.10;0.10;;;;;;;;;;5028887;28;20210;-73
2022/04/27 06:25:47;;;;;;;0.10;0.10;;;;;;;;;;5023443;28;20227;-74
2022/04/27 06:28:19;;;;;;;0.10;0.10;;;;;;;;;;5026397;28;20203;-74
2022/04/27 06:30:47;;;;;;;0.10;0.10;;;;;;;;;;5023508;28;20196;-74
2022/04/27 06:33:14;;;;;;;0.10;0.10;;;;;;;;;;5024569;28;20228;-74
2022/04/27 06:35:43;;;;;;;0.10;0.10;;;;;;;;;;5024879;28;20287;-73
2022/04/27 06:38:14;;;;;;;0.00;0.00;;;;;;;;;;5022476;28;20212;-73
2022/04/27 06:40:41;;;;;;;0.10;0.10;;;;;;;;;;5027903;28;20192;-74
2022/04/27 06:43:09;;;;;;;0.10;0.10;;;;;;;;;;5023438;28;20197;-73
2022/04/27 06:45:45;;;;;;;0.10;0.10;;;;;;;;;;5027647;28;20215;-73
2022/04/27 06:48:33;;;;;;;0.10;0.10;;;8.80;99.90;;;;;;4995907;28;20239;-73
2022/04/27 06:51:20;;;;;;;0.07;0.07;;;;;;;;;;5024098;28;20207;-73
2022/04/27 06:54:06;;;;;;;0.10;0.10;;;15.30;99.90;;;;;;5023845;28;20258;-74
2022/04/27 06:56:52;;;;;;;0.10;0.10;;;15.40;99.90;;;;;;5020080;28;20239;-73
2022/04/27 06:59:19;;;;;;;0.10;0.10;;;;;;;;;;5027481;28;20291;-74
2022/04/27 07:01:50;;;;;;;0.00;0.00;;;;;;;;;;5027389;28;20212;-74
2022/04/27 07:04:20;;;;;;;0.00;0.00;;;;;;;;;;5017636;28;20216;-73
2022/04/27 07:06:48;;;;;;;0.10;0.10;;;;;;;;;;5025941;28;20207;-74
2022/04/27 07:09:16;;;;;;;0.10;0.10;;;;;;;;;;5024012;28;20196;-73
2022/04/27 07:11:44;;;;;;;0.00;0.00;;;;;;;;;;5019249;28;20210;-74
2022/04/27 07:14:15;;;;;;;0.10;0.10;;;;;;;;;;5021244;28;20228;-74
2022/04/27 07:16:43;;;;;;;0.10;0.10;;;;;;;;;;5026162;28;20306;-73
2022/04/27 07:19:10;;;;;;;0.00;0.00;;;;;;;;;;5022715;28;20250;-74
2022/04/27 07:21:38;;;;;;;0.10;0.10;;;;;;;;;;5029271;28;20203;-73
2022/04/27 07:24:07;;;;;;;0.10;0.10;;;;;;;;;;5036371;22;20251;-74
2022/04/27 07:26:35;;;;;;;0.00;0.00;;;;;;;;;;5048734;28;20310;-75
2022/04/27 07:29:02;;;;;;;0.10;0.10;;;;;;;;;;5026240;28;20210;-74
2022/04/27 07:31:29;;;;;;;0.00;0.00;;;;;;;;;;5022018;28;20290;-75
2022/04/27 07:33:57;;;;;;;0.10;0.10;;;;;;;;;;5027598;28;20223;-75
2022/04/27 07:36:24;;;;;;;0.00;0.00;;;;;;;;;;5028776;28;20223;-75
2022/04/27 07:38:52;;;;;;;0.10;0.10;;;;;;;;;;5035245;28;20264;-76
2022/04/27 07:41:20;;;;;;;0.00;0.00;;;;;;;;;;5044218;28;20207;-75
2022/04/27 07:43:48;;;;;;;0.00;0.00;;;;;;;;;;5025631;28;20201;-75
2022/04/27 07:46:15;;;;;;;0.00;0.00;;;;;;;;;;5022176;22;20271;-74
2022/04/27 07:48:43;;;;;;;0.10;0.10;;;;;;;;;;5006592;28;20177;-74
2022/04/27 07:51:10;;;;;;;0.10;0.10;;;;;;;;;;4988605;28;20208;-74
2022/04/27 07:53:37;;;;;;;0.10;0.10;;;;;;;;;;5006705;28;20693;-75
2022/04/27 07:56:05;;;;;;;0.00;0.00;;;;;;;;;;4989446;28;20299;-74
2022/04/27 07:58:34;;;;;;;0.00;0.00;;;;;;;;;;4990631;28;20200;-73
2022/04/27 08:01:02;;;;;;;0.00;0.00;;;;;;;;;;4989291;28;20223;-75
2022/04/27 08:03:29;;;;;;;0.00;0.00;;;;;;;;;;4988474;28;20188;-73
2022/04/27 08:05:57;;;;;;;0.10;0.10;;;;;;;;;;5006315;28;20227;-74
2022/04/27 08:08:24;;;;;;;0.00;0.00;;;;;;;;;;4988294;28;20201;-74
2022/04/27 08:10:52;;;;;;;0.00;0.00;;;;;;;;;;5005988;28;20254;-72
2022/04/27 08:13:19;;;;;;;0.10;0.10;;;;;;;;;;4988477;28;20201;-74
2022/04/27 08:15:48;;;;;;;0.03;0.03;;;;;;;;;;4987954;28;20208;-73
2022/04/27 08:18:15;;;;;;;0.00;0.00;;;;;;;;;;5006217;28;20241;-75
2022/04/27 08:23:29;;;;;;;0.00;0.00;;;;;;;;;;5004899;28;20250;-74
2022/04/27 08:25:58;;;;;;;0.00;0.00;;;;;;;;;;4988390;28;20196;-75
2022/04/27 08:28:27;;;;;;;0.00;0.00;;;;;;;;;;4988085;28;20236;-74
2022/04/27 08:30:55;;;;;;;0.07;0.07;;;;;;;;;;5005366;28;20200;-74
2022/04/27 08:33:23;;;;;;;0.00;0.00;;;;;;;;;;4987367;28;20210;-72
2022/04/27 08:35:50;;;;;;;0.00;0.00;;;;;;;;;;4988294;28;20543;-75
2022/04/27 08:38:18;;;;;;;0.10;0.10;;;;;;;;;;5004607;28;20696;-75
2022/04/27 08:40:46;;;;;;;0.00;0.00;;;;;;;;;;4987546;28;20314;-75
2022/04/27 08:43:14;;;;;;;0.03;0.03;;;;;;;;;;4988005;28;20220;-74
2022/04/27 08:45:42;;;;;;;0.00;0.00;;;;;;;;;;5005443;28;20219;-77
2022/04/27 08:48:11;;;;;;;0.00;0.00;;;;;;;;;;4988131;28;20709;-75
2022/04/27 08:50:39;;;;;;;0.00;0.00;;;;;;;;;;4987829;28;20195;-73
2022/04/27 08:53:06;;;;;;;0.00;0.00;;;;;;;;;;5006082;28;20555;-75
2022/04/27 08:55:36;;;;;;;0.00;0.00;;;;;;;;;;4988236;28;20209;-75
2022/04/27 08:58:08;;;;;;;0.00;0.00;;;;;;;;;;4988657;28;20298;-75
2022/04/27 09:00:36;;;;;;;0.00;0.00;;;;;;;;;;4988800;28;20217;-73
2022/04/27 09:03:22;;;;;;;0.00;0.00;;;;;;;;;;4988385;28;20717;-72
2022/04/27 09:05:51;;;;;;;0.00;0.00;;;;;;;;;;5006441;28;20197;-74
2022/04/27 09:08:18;;;;;;;0.00;0.00;;;;;;;;;;4989006;28;20282;-75
2022/04/27 09:10:46;;;;;;;0.00;0.00;;;;;;;;;;5004619;28;20220;-75
2022/04/27 09:13:14;;;;;;;0.00;0.00;;;;;;;;;;4987440;28;20264;-73
2022/04/27 09:15:41;;;;;;;0.00;0.00;;;;;;;;;;5005488;28;20177;-76
2022/04/27 09:21:04;;;;;;;0.00;0.00;;;;;;;;;;4986585;28;20219;-74
2022/04/27 09:23:37;;;;;;;0.00;0.00;;;;;;;;;;4987550;28;20282;-74
2022/04/27 09:26:22;;;;;;;0.00;0.00;;;;;;;;;;4986326;28;20208;-75
2022/04/27 09:28:50;;;;;;;0.00;0.00;;;;;;;;;;4986966;28;20211;-75
2022/04/27 09:31:30;;;;;;;0.00;0.00;;;;;;;;;;4987809;28;20381;-75
2022/04/27 09:33:59;;;;;;;0.00;0.00;;;;;;;;;;5005303;28;20225;-73
2022/04/27 09:36:31;;;;;;;0.00;0.00;;;;;;;;;;5004803;28;20232;-73
2022/04/27 09:38:58;;;;;;;0.00;0.00;;;;;;;;;;4987533;28;20196;-76
2022/04/27 09:41:39;;;;;;;0.00;0.00;;;;;;;;;;4986897;28;20215;-74
2022/04/27 09:44:07;;;;;;;0.00;0.00;;;;;;;;;;5004840;28;20212;-73
2022/04/27 09:46:40;;;;;;;0.00;0.00;;;;;;;;;;4987013;28;20323;-76
2022/04/27 09:49:11;;;;;;;0.00;0.00;;;;;;;;;;4987924;28;20677;-74
2022/04/27 09:51:47;;;;;;;0.00;0.00;;;;;;;;;;4987290;28;20300;-75
2022/04/27 09:54:19;;;;;;;0.00;0.00;;;;;;;;;;4987060;28;20201;-76
2022/04/27 09:56:50;;;;;;;0.00;0.00;;;;;;;;;;4987242;28;20275;-76
2022/04/27 09:59:17;;;;;;;0.00;0.00;;;;;;;;;;5004676;28;20185;-74
2022/04/27 10:01:45;;;;;;;0.00;0.00;;;;;;;;;;5002929;28;20204;-75
2022/04/27 10:04:13;;;;;;;0.00;0.00;;;;;;;;;;5004639;28;20712;-76
2022/04/27 10:06:42;;;;;;;0.00;0.00;;;;;;;;;;4987034;28;20220;-75
2022/04/27 10:09:10;;;;;;;0.00;0.00;;;;;;;;;;4987429;28;20197;-76
2022/04/27 10:11:38;;;;;;;0.00;0.00;;;19.70;99.90;;;;;;4987137;28;20208;-74
2022/04/27 10:14:05;;;;;;;0.00;0.00;;;19.60;99.90;;;;;;5004702;28;20207;-74
2022/04/27 10:16:33;;;;;;;0.00;0.00;;;;;;;;;;4987288;28;20221;-75
2022/04/27 10:19:00;;;;;;;0.00;0.00;;;;;;;;;;4987197;28;20200;-74
2022/04/27 10:21:39;;;;;;;0.00;0.00;;;19.90;99.90;;;;;;4987100;28;20234;-74
2022/04/27 10:24:08;;;;;;;0.00;0.00;;;;;;;;;;4986501;28;20235;-73
2022/04/27 10:26:36;;;;;;;0.00;0.00;;;20.10;99.90;;;;;;4987064;28;20224;-75
2022/04/27 10:29:05;;;;;;;0.00;0.00;;;20.30;99.90;;;;;;4987704;28;20199;-74
2022/04/27 10:32:05;;;;;;;0.00;0.00;;;20.30;99.90;;;;;;5005062;28;20181;-72
2022/04/27 10:34:33;;;;;;;0.00;0.00;;;20.60;99.90;;;;;;5005632;28;20183;-75
2022/04/27 10:37:03;;;;;;;0.00;0.00;;;20.70;99.90;;;;;;4988843;28;20584;-74
2022/04/27 10:39:32;;;;;;;0.00;0.00;;;20.80;99.90;;;;;;5005880;28;20189;-74
2022/04/27 10:42:18;;;;;;;0.00;0.00;;;;;;;;;;5003988;28;20610;-74
2022/04/27 10:45:09;;;;;;;0.00;0.00;;;;;;;;;;5002632;28;20244;-73
2022/04/27 10:47:38;;;;;;;0.00;0.00;;;;;;;;;;4988272;28;20238;-74
2022/04/27 10:50:19;;;;;;;0.00;0.00;;;;;;;;;;4985725;28;20653;-74
2022/04/27 10:52:51;;;;;;;0.00;0.00;;;;;;;;;;4985805;28;20611;-74
2022/04/27 10:55:40;;;;;;;0.00;0.00;;;;;;;;;;5003099;28;20250;-74
2022/04/27 10:58:16;;;;;;;0.00;0.00;;;;;;;;;;5003006;28;20237;-72
2022/04/27 11:01:02;;;;;;;0.00;0.00;;;;;;;;;;4989699;28;20208;-74
2022/04/27 11:03:30;;;;;;;0.00;0.00;;;;;;;;;;5007208;28;20265;-74
2022/04/27 11:05:58;;;;;;;0.00;0.00;;;;;;;;;;4989739;28;20392;-74
2022/04/27 11:08:29;;;;;;;0.00;0.00;;;;;;;;;;5007726;28;20282;-75
2022/04/27 11:10:57;;;;;;;0.00;0.00;;;;;;;;;;5007636;28;20189;-73
2022/04/27 11:13:27;;;;;;;0.00;0.00;;;;;;;;;;4990091;28;20291;-75
2022/04/27 11:15:55;;;;;;;0.00;0.00;;;;;;;;;;5007222;28;20177;-76
2022/04/27 11:18:22;;;;;;;0.00;0.00;;;;;;;;;;4989908;28;20227;-76
2022/04/27 11:20:50;;;;;;;0.00;0.00;;;;;;;;;;4990093;28;20243;-75
2022/04/27 11:23:22;;;;;;;0.00;0.00;;;;;;;;;;5007194;28;20193;-75
2022/04/27 11:25:51;;;;;;;0.00;0.00;;;;;;;;;;4988986;28;20205;-73
2022/04/27 11:28:19;;;;;;;0.00;0.00;;;;;;;;;;4989160;28;20204;-73
2022/04/27 11:30:48;;;;;;;0.00;0.00;;;;;;;;;;5006985;28;20209;-76
2022/04/27 11:33:17;;;;;;;0.00;0.00;;;;;;;;;;4989529;28;20205;-75
2022/04/27 11:35:46;;;;;;;0.00;0.00;;;;;;;;;;5007825;28;20185;-73
2022/04/27 11:38:18;;;;;;;0.00;0.00;;;;;;;;;;4989938;28;20235;-73
2022/04/27 11:40:45;;;;;;;0.00;0.00;;;;;;;;;;5007252;28;20205;-75
2022/04/27 11:43:13;;;;;;;0.00;0.00;;;;;;;;;;4988916;28;20200;-74
2022/04/27 11:45:40;;;;;;;0.00;0.00;;;;;;;;;;4989285;28;20235;-73
2022/04/27 11:48:10;;;;;;;0.00;0.00;;;;;;;;;;5007397;28;20223;-74
2022/04/27 11:50:38;;;;;;;0.00;0.00;;;;;;;;;;4991280;28;20204;-75
2022/04/27 11:53:06;;;;;;;0.00;0.00;;;;;;;;;;4991851;28;20189;-75
2022/04/27 11:55:35;;;;;;;0.00;0.00;;;;;;;;;;5007421;28;20210;-74
2022/04/27 11:58:02;;;;;;;0.00;0.00;;;;;;;;;;4988953;28;20220;-74
2022/04/27 12:00:31;;;;;;;0.00;0.00;;;;;;;;;;4989391;28;20255;-74
2022/04/27 12:03:03;;;;;;;0.00;0.00;;;;;;;;;;5005206;28;20247;-75
2022/04/27 12:05:33;;;;;;;0.00;0.00;;;;;;;;;;5007057;28;20283;-74
2022/04/27 12:08:03;;;;;;;0.00;0.00;;;;;;;;;;4988498;28;20229;-76
2022/04/27 12:10:31;;;;;;;0.00;0.00;;;;;;;;;;4988984;28;20543;-75
2022/04/27 12:13:00;;;;;;;0.00;0.00;;;;;;;;;;5006239;28;20741;-74
2022/04/27 12:15:28;;;;;;;0.00;0.00;;;;;;;;;;5006305;28;20201;-75
2022/04/27 12:17:56;;;;;;;0.00;0.00;;;;;;;;;;5005448;28;20279;-75
2022/04/27 12:20:25;;;;;;;0.00;0.00;;;;;;;;;;4988181;28;20228;-75
2022/04/27 12:22:55;;;;;;;0.00;0.00;;;;;;;;;;5005518;28;20602;-74
2022/04/27 12:25:23;;;;;;;0.00;0.00;;;;;;;;;;4988292;28;20290;-74
2022/04/27 12:27:51;;;;;;;0.00;0.00;;;;;;;;;;4987571;28;20296;-75
2022/04/27 12:30:21;;;;;;;0.00;0.00;;;;;;;;;;5005538;28;20208;-75
2022/04/27 12:32:49;;;;;;;0.00;0.00;;;;;;;;;;5005328;28;20294;-73
2022/04/27 12:38:13;;;;;;;0.00;0.00;;;;;;;;;;5005237;28;20209;-75
2022/04/27 12:40:42;;;;;;;0.00;0.00;;;;;;;;;;4988212;28;20209;-75
2022/04/27 12:43:12;;;;;;;0.00;0.00;;;;;;;;;;5005821;28;20276;-75
2022/04/27 12:45:39;;;;;;;0.00;0.00;;;;;;;;;;4988138;28;20224;-75
2022/04/27 12:48:07;;;;;;;0.00;0.00;;;;;;;;;;4987461;28;20224;-74
2022/04/27 12:50:35;;;;;;;0.00;0.00;;;;;;;;;;4987812;28;20197;-75
2022/04/27 12:53:09;;;;;;;0.00;0.00;;;;;;;;;;5005456;28;20289;-74
2022/04/27 12:55:38;;;;;;;0.00;0.00;;;;;;;;;;4987583;28;20196;-75
2022/04/27 12:58:06;;;;;;;0.00;0.00;;;;;;;;;;4987144;28;20232;-74
2022/04/27 13:00:39;;;;;;;0.00;0.00;;;;;;;;;;5006068;28;20177;-75
2022/04/27 13:03:08;;;;;;;0.00;0.00;;;;;;;;;;4989283;28;20268;-74
2022/04/27 13:05:35;;;;;;;0.00;0.00;;;;;;;;;;4991508;28;20216;-75
2022/04/27 13:08:03;;;;;;;0.00;0.00;;;;;;;;;;4989630;28;20225;-74
2022/04/27 13:13:17;;;;;;;0.00;0.00;;;;;;;;;;5022219;28;20192;-75
2022/04/27 13:15:46;;;;;;;0.00;0.00;;;;;;;;;;5025402;28;20191;-75
2022/04/27 13:18:13;;;;;;;0.00;0.00;;;;;;;;;;5006910;28;20277;-75
2022/04/27 13:20:43;;;;;;;0.00;0.00;;;;;;;;;;5024049;28;20196;-73
2022/04/27 13:23:11;;;;;;;0.00;0.00;;;;;;;;;;5024515;28;20200;-75
2022/04/27 13:25:38;;;;;;;0.00;0.00;;;;;;;;;;5006298;28;20226;-75
2022/04/27 13:28:06;;;;;;;0.00;0.00;;;;;;;;;;5006393;28;20219;-72
2022/04/27 13:30:35;;;;;;;0.00;0.00;;;;;;;;;;5024708;28;20195;-74
2022/04/27 13:33:03;;;;;;;0.00;0.00;;;;;;;;;;5024195;28;20210;-74
2022/04/27 13:35:31;;;;;;;0.00;0.00;;;;;;;;;;5005949;28;20191;-75
2022/04/27 13:37:58;;;;;;;0.00;0.00;;;;;;;;;;5023806;28;20277;-75
2022/04/27 13:40:26;;;;;;;0.00;0.00;;;;;;;;;;5007208;28;20398;-74
2022/04/27 13:42:53;;;;;;;0.00;0.00;;;;;;;;;;5006734;28;20203;-75
2022/04/27 13:45:21;;;;;;;0.00;0.00;;;;;;;;;;5006477;28;20219;-75
2022/04/27 13:47:50;;;;;;;0.00;0.00;;;;;;;;;;4987520;28;20224;-76
2022/04/27 13:50:20;;;;;;;0.00;0.00;;;;;;;;;;4989146;28;20192;-75
2022/04/27 13:52:48;;;;;;;0.00;0.00;;;;;;;;;;5001707;28;20204;-76
2022/04/27 13:55:15;;;;;;;0.00;0.00;;;;;;;;;;4989377;28;20203;-76
2022/04/27 13:57:43;;;;;;;0.00;0.00;;;;;;;;;;4986446;28;20228;-77
2022/04/27 14:00:11;;;;;;;0.00;0.00;;;;;;;;;;4987397;28;20545;-76
2022/04/27 14:02:41;;;;;;;0.00;0.00;;;;;;;;;;4986899;28;20196;-76
2022/04/27 14:05:11;;;;;;;0.00;0.00;;;;;;;;;;4986914;28;20213;-74
2022/04/27 14:07:42;;;;;;;0.00;0.00;;;;;;;;;;4986543;28;20228;-75
2022/04/27 14:10:10;;;;;;;0.00;0.00;;;;;;;;;;4986969;28;20200;-74
2022/04/27 14:15:23;;;;;;;0.00;0.00;;;;;;;;;;4987052;28;20180;-75
2022/04/27 14:20:38;;;;;;;0.00;0.00;;;;;;;;;;4987856;28;20220;-76
2022/04/27 14:23:06;;;;;;;0.00;0.00;;;;;;;;;;5007617;28;20613;-76
2022/04/27 14:25:35;;;;;;;0.00;0.00;;;;;;;;;;4988365;28;20223;-74
2022/04/27 14:28:02;;;;;;;0.00;0.00;;;;;;;;;;4986962;28;20239;-75
2022/04/27 14:30:29;;;;;;;0.00;0.00;;;;;;;;;;4987058;28;20299;-77
2022/04/27 14:32:56;;;;;;;0.00;0.00;;;;;;;;;;4990744;28;20205;-75
2022/04/27 14:35:24;;;;;;;0.00;0.00;;;;;;;;;;5008833;28;20204;-76
2022/04/27 14:37:53;;;;;;;0.00;0.00;;;;;;;;;;5008729;28;20217;-75
2022/04/27 14:40:20;;;;;;;0.00;0.00;;;;;;;;;;4990498;28;20227;-73
2022/04/27 14:42:47;;;;;;;0.00;0.00;;;;;;;;;;4989868;28;20224;-74
2022/04/27 14:45:15;;;;;;;0.00;0.00;;;;;;;;;;4989544;28;20283;-75
2022/04/27 14:47:42;;;;;;;0.00;0.00;;;;;;;;;;4989807;28;20319;-77
2022/04/27 14:50:10;;;;;;;0.00;0.00;;;;;;;;;;5007204;28;20189;-76
2022/04/27 14:52:38;;;;;;;0.00;0.00;;;;;;;;;;4989815;28;20205;-75
2022/04/27 14:55:08;;;;;;;0.00;0.00;;;;;;;;;;5007344;28;20181;-75
2022/04/27 14:57:36;;;;;;;0.00;0.00;;;;;;;;;;5013866;28;20217;-76
2022/04/27 15:00:03;;;;;;;0.00;0.00;;;;;;;;;;5005701;28;20216;-74
2022/04/27 15:02:32;;;;;;;0.00;0.00;;;;;;;;;;5007365;28;20259;-73
2022/04/27 15:05:00;;;;;;;0.00;0.00;;;;;;;;;;4989412;28;20227;-76
2022/04/27 15:07:27;;;;;;;0.00;0.00;;;;;;;;;;5007577;28;20263;-76
2022/04/27 15:09:54;;;;;;;0.00;0.00;;;;;;;;;;4989642;28;20203;-76
2022/04/27 15:12:23;;;;;;;0.00;0.00;;;;;;;;;;5007066;28;20189;-76
2022/04/27 15:14:50;;;;;;;0.00;0.00;;;;;;;;;;5007242;28;20181;-75
2022/04/27 15:17:18;;;;;;;0.00;0.00;;;;;;;;;;5006739;28;20204;-74
2022/04/27 15:22:40;;;;;;;0.00;0.00;;;;;;;;;;5001562;28;20211;-76
2022/04/27 15:22:41;;;;;;;0.00;0.00;;;;;;;;;;5027162;28;20211;-74
2022/04/27 15:25:09;;;;;;;0.00;0.00;;;;;;;;;;5008878;28;20294;-76
2022/04/27 15:27:38;;;;;;;0.00;0.00;;;;;;;;;;5026720;28;20227;-75